createdAt,value
2022-12-06T00:02:17.613Z,96.18
2022-12-06T00:05:19.387Z,96.28
2022-12-06T00:08:21.267Z,94.38
2022-12-06T00:11:34.167Z,93.48
2022-12-06T00:14:35.931Z,93.95
2022-12-06T00:17:41.620Z,94.25
2022-12-06T00:20:44.799Z,94.43
2022-12-06T00:23:48.899Z,93.76
2022-12-06T00:26:51.213Z,93.78
2022-12-06T00:29:52.953Z,94.41
2022-12-06T00:32:54.774Z,95.20
2022-12-06T00:36:02.382Z,93.95
2022-12-06T00:39:07.579Z,95.09
2022-12-06T00:42:09.390Z,94.40
2022-12-06T00:45:11.353Z,94.51
2022-12-06T00:48:13.177Z,94.44
2022-12-06T00:51:16.655Z,95.11
2022-12-06T00:54:18.527Z,95.61
2022-12-06T00:57:20.223Z,95.00
2022-12-06T01:00:22.027Z,95.30
2022-12-06T01:03:24.076Z,95.21
2022-12-06T01:06:28.766Z,94.95
2022-12-06T01:09:31.118Z,94.17
2022-12-06T01:12:32.862Z,93.15
2022-12-06T01:15:38.782Z,93.92
2022-12-06T01:18:41.426Z,94.30
2022-12-06T01:21:43.631Z,94.32
2022-12-06T01:24:47.315Z,94.37
2022-12-06T01:27:49.062Z,94.35
2022-12-06T01:30:50.912Z,93.71
2022-12-06T01:33:52.816Z,93.87
2022-12-06T01:36:54.556Z,93.00
2022-12-06T01:39:56.439Z,92.49
2022-12-06T01:42:58.144Z,93.55
2022-12-06T01:46:06.958Z,93.92
2022-12-06T01:53:07.046Z,93.50
2022-12-06T01:56:09.288Z,93.62
2022-12-06T01:59:12.006Z,92.44
2022-12-06T02:02:13.998Z,92.63
2022-12-06T02:05:17.435Z,92.19
2022-12-06T02:08:20.979Z,92.55
2022-12-06T02:11:22.872Z,92.68
2022-12-06T02:14:29.519Z,93.16
2022-12-06T02:18:00.340Z,93.57
2022-12-06T02:21:34.316Z,93.51
2022-12-06T02:24:54.825Z,93.64
2022-12-06T02:28:22.515Z,92.94
2022-12-06T02:31:27.350Z,92.17
2022-12-06T02:34:29.005Z,92.63
2022-12-06T02:37:40.359Z,92.13
2022-12-06T02:40:58.892Z,91.97
2022-12-06T02:44:06.352Z,92.07
2022-12-06T02:47:11.611Z,91.80
2022-12-06T02:50:31.821Z,91.78
2022-12-06T02:53:36.989Z,92.47
2022-12-06T02:56:38.782Z,91.65
2022-12-06T02:59:50.745Z,92.74
2022-12-06T03:03:04.502Z,92.78
2022-12-06T03:06:11.979Z,93.32
2022-12-06T03:09:22.899Z,95.38
2022-12-06T03:12:33.463Z,96.87
2022-12-06T03:15:56.245Z,96.75
2022-12-06T03:19:31.771Z,95.29
2022-12-06T03:22:47.180Z,95.22
2022-12-06T03:25:51.325Z,96.22
2022-12-06T03:28:56.602Z,95.36
2022-12-06T03:32:03.135Z,95.43
2022-12-06T03:35:10.118Z,95.20
2022-12-06T03:38:22.013Z,95.83
2022-12-06T03:41:28.600Z,94.98
2022-12-06T03:44:30.750Z,95.36
2022-12-06T03:47:58.437Z,96.04
2022-12-06T03:51:04.613Z,95.88
2022-12-06T03:54:08.372Z,95.73
2022-12-06T03:57:10.787Z,94.99
2022-12-06T04:00:13.216Z,93.68
2022-12-06T04:03:14.869Z,93.86
2022-12-06T04:06:16.741Z,93.34
2022-12-06T04:09:37.109Z,94.52
2022-12-06T04:12:57.266Z,94.95
2022-12-06T04:16:00.956Z,95.43
2022-12-06T04:19:02.768Z,95.94
2022-12-06T04:22:23.010Z,95.38
2022-12-06T04:25:24.694Z,93.84
2022-12-06T04:28:44.964Z,93.71
2022-12-06T04:32:05.142Z,92.93
2022-12-06T04:35:25.385Z,92.46
2022-12-06T04:38:42.357Z,93.32
2022-12-06T04:42:02.573Z,93.29
2022-12-06T04:45:05.928Z,93.40
2022-12-06T04:48:07.492Z,93.62
2022-12-06T04:51:12.995Z,92.04
2022-12-06T04:54:14.771Z,92.02
2022-12-06T04:57:17.302Z,93.28
2022-12-06T05:00:19.297Z,93.59
2022-12-06T05:03:20.965Z,93.38
2022-12-06T05:06:22.698Z,93.80
2022-12-06T05:09:25.038Z,93.87
2022-12-06T05:12:26.761Z,92.85
2022-12-06T05:15:29.414Z,92.48
2022-12-06T05:18:31.890Z,93.02
2022-12-06T05:21:33.606Z,92.62
2022-12-06T05:24:35.200Z,91.26
2022-12-06T05:27:36.825Z,91.19
2022-12-06T05:30:38.500Z,91.33
2022-12-06T05:33:40.369Z,91.34
2022-12-06T05:36:44.864Z,92.11
2022-12-06T05:39:46.569Z,92.20
2022-12-06T05:42:49.836Z,92.46
2022-12-06T05:45:54.568Z,91.87
2022-12-06T05:48:56.277Z,92.59
2022-12-06T05:52:03.686Z,92.85
2022-12-06T05:55:06.060Z,93.14
2022-12-06T05:58:08.420Z,93.02
2022-12-06T06:01:10.140Z,94.56
2022-12-06T06:04:11.772Z,93.27
2022-12-06T06:07:13.346Z,92.01
2022-12-06T06:10:16.151Z,92.76
2022-12-06T06:13:17.940Z,93.13
2022-12-06T06:16:19.614Z,93.57
2022-12-06T06:19:23.895Z,93.17
2022-12-06T06:22:25.507Z,93.78
2022-12-06T06:25:27.209Z,94.50
2022-12-06T06:28:28.867Z,95.02
2022-12-06T06:31:30.568Z,94.85
2022-12-06T06:34:32.319Z,95.70
2022-12-06T06:37:33.958Z,97.79
2022-12-06T06:40:36.142Z,98.32
2022-12-06T06:43:37.746Z,98.61
2022-12-06T06:46:39.560Z,99.48
2022-12-06T06:49:41.345Z,99.50
2022-12-06T06:52:43.112Z,99.92
2022-12-06T06:55:45.853Z,100.00
2022-12-06T06:58:47.475Z,100.00
2022-12-06T07:01:49.641Z,100.00
2022-12-06T07:04:51.969Z,100.00
2022-12-06T07:07:53.936Z,100.00
2022-12-06T07:10:56.844Z,100.00
2022-12-06T07:13:58.565Z,100.00
2022-12-06T07:17:00.292Z,100.00
2022-12-06T07:20:02.252Z,100.00
2022-12-06T07:23:04.861Z,100.00
2022-12-06T07:26:24.821Z,100.00
2022-12-06T07:29:26.668Z,100.00
2022-12-06T07:32:28.521Z,100.00
2022-12-06T07:35:55.678Z,100.00
2022-12-06T07:38:54.225Z,100.00
2022-12-06T07:42:14.759Z,100.00
2022-12-06T07:45:24.437Z,100.00
2022-12-06T07:48:27.233Z,100.00
2022-12-06T07:51:29.113Z,100.00
2022-12-06T07:54:30.885Z,100.00
2022-12-06T07:57:35.317Z,100.00
2022-12-06T08:00:41.609Z,100.00
2022-12-06T08:03:43.331Z,100.00
2022-12-06T08:06:45.577Z,100.00
2022-12-06T08:09:47.965Z,100.00
2022-12-06T08:12:49.714Z,100.00
2022-12-06T08:15:51.585Z,100.00
2022-12-06T08:18:53.491Z,100.00
2022-12-06T08:21:55.248Z,100.00
2022-12-06T08:24:57.066Z,100.00
2022-12-06T08:27:59.081Z,100.00
2022-12-06T08:31:05.133Z,100.00
2022-12-06T08:34:07.799Z,100.00
2022-12-06T08:37:10.357Z,100.00
2022-12-06T08:40:12.221Z,100.00
2022-12-06T08:43:14.075Z,100.00
2022-12-06T08:46:15.965Z,100.00
2022-12-06T08:49:18.593Z,100.00
2022-12-06T08:52:20.569Z,100.00
2022-12-06T08:55:22.353Z,99.66
2022-12-06T08:58:24.012Z,99.97
2022-12-06T09:01:34.087Z,99.32
2022-12-06T09:04:37.747Z,99.27
2022-12-06T09:07:39.628Z,99.68
2022-12-06T09:10:43.071Z,99.03
2022-12-06T09:13:45.490Z,99.63
2022-12-06T09:16:47.205Z,99.90
2022-12-06T09:19:48.998Z,98.85
2022-12-06T09:22:50.715Z,98.69
2022-12-06T09:25:52.462Z,97.22
2022-12-06T09:28:55.259Z,97.80
2022-12-06T09:31:57.001Z,98.50
2022-12-06T09:34:58.693Z,98.76
2022-12-06T09:38:03.655Z,98.28
2022-12-06T09:41:35.824Z,98.78
2022-12-06T09:45:01.794Z,98.97
2022-12-06T09:48:12.517Z,98.97
2022-12-06T09:51:49.522Z,99.70
2022-12-06T09:55:00.701Z,99.95
2022-12-06T09:58:32.014Z,100.00
2022-12-06T10:01:58.724Z,100.00
2022-12-06T10:05:21.558Z,100.00
2022-12-06T10:08:31.004Z,100.00
2022-12-06T10:11:52.599Z,100.00
2022-12-06T10:15:32.403Z,100.00
2022-12-06T10:18:59.090Z,100.00
2022-12-06T10:36:02.136Z,100.00
2022-12-06T10:39:29.237Z,100.00
2022-12-06T10:42:42.223Z,100.00
2022-12-06T10:46:18.838Z,100.00
2022-12-06T10:49:48.615Z,100.00
2022-12-06T10:53:01.545Z,100.00
2022-12-06T10:56:28.574Z,100.00
2022-12-06T10:59:43.015Z,100.00
2022-12-06T11:03:15.841Z,100.00
2022-12-06T11:06:30.820Z,100.00
2022-12-06T11:09:40.637Z,100.00
2022-12-06T11:12:43.684Z,100.00
2022-12-06T11:15:54.097Z,100.00
2022-12-06T11:19:36.704Z,100.00
2022-12-06T11:22:45.386Z,100.00
2022-12-06T11:26:21.068Z,100.00
2022-12-06T11:29:23.093Z,100.00
2022-12-06T11:32:25.048Z,100.00
2022-12-06T11:35:28.735Z,100.00
2022-12-06T11:38:31.375Z,100.00
2022-12-06T11:41:36.743Z,100.00
2022-12-06T11:44:38.701Z,100.00
2022-12-06T11:47:40.527Z,100.00
2022-12-06T11:50:45.215Z,100.00
2022-12-06T11:54:07.661Z,100.00
2022-12-06T11:57:25.979Z,100.00
2022-12-06T12:00:30.866Z,100.00
2022-12-06T12:03:36.038Z,100.00
2022-12-06T12:06:37.804Z,100.00
2022-12-06T12:09:56.857Z,100.00
2022-12-06T12:13:30.979Z,100.00
2022-12-06T12:16:37.035Z,100.00
2022-12-06T12:19:49.400Z,100.00
2022-12-06T12:23:17.784Z,100.00
2022-12-06T12:26:21.708Z,100.00
2022-12-06T12:29:23.539Z,100.00
2022-12-06T12:32:25.322Z,100.00
2022-12-06T12:35:30.257Z,100.00
2022-12-06T12:38:37.625Z,100.00
2022-12-06T12:41:43.814Z,100.00
2022-12-06T12:44:46.317Z,100.00
2022-12-06T12:48:20.736Z,100.00
2022-12-06T12:51:33.023Z,100.00
2022-12-06T12:54:36.623Z,100.00
2022-12-06T12:57:38.604Z,100.00
2022-12-06T13:00:43.863Z,100.00
2022-12-06T13:03:51.651Z,100.00
2022-12-06T13:06:56.378Z,100.00
2022-12-06T13:10:07.679Z,100.00
2022-12-06T13:13:39.852Z,100.00
2022-12-06T13:16:42.460Z,100.00
2022-12-06T13:19:53.025Z,100.00
2022-12-06T13:23:01.106Z,100.00
2022-12-06T13:26:17.524Z,100.00
2022-12-06T13:29:34.515Z,100.00
2022-12-06T13:32:44.960Z,100.00
2022-12-06T13:35:56.981Z,100.00
2022-12-06T13:38:58.776Z,100.00
2022-12-06T13:42:18.034Z,100.00
2022-12-06T13:45:39.334Z,100.00
2022-12-06T13:49:00.692Z,100.00
2022-12-06T13:52:02.458Z,100.00
2022-12-06T13:55:26.111Z,100.00
2022-12-06T13:58:27.762Z,100.00
2022-12-06T14:01:35.523Z,100.00
2022-12-06T14:04:42.550Z,100.00
2022-12-06T14:07:44.301Z,100.00
2022-12-06T14:10:46.476Z,100.00
2022-12-06T14:14:09.589Z,100.00
2022-12-06T14:17:26.936Z,100.00
2022-12-06T14:20:35.959Z,100.00
2022-12-06T14:23:47.345Z,100.00
2022-12-06T14:26:49.001Z,100.00
2022-12-06T14:30:01.961Z,100.00
2022-12-06T14:33:22.122Z,100.00
2022-12-06T14:36:28.193Z,100.00
2022-12-06T14:39:31.590Z,100.00
2022-12-06T14:42:51.642Z,100.00
2022-12-06T14:45:54.285Z,100.00
2022-12-06T14:49:14.803Z,100.00
2022-12-06T14:52:24.721Z,100.00
2022-12-06T14:55:28.100Z,100.00
2022-12-06T14:58:48.742Z,100.00
2022-12-06T15:01:54.370Z,100.00
2022-12-06T15:04:56.461Z,100.00
2022-12-06T15:07:58.485Z,100.00
2022-12-06T15:11:11.286Z,100.00
2022-12-06T15:14:18.862Z,100.00
2022-12-06T15:17:22.341Z,100.00
2022-12-06T15:20:24.467Z,100.00
2022-12-06T15:23:40.980Z,100.00
2022-12-06T15:26:42.675Z,100.00
2022-12-06T15:29:44.373Z,100.00
2022-12-06T15:32:46.038Z,100.00
2022-12-06T15:35:48.211Z,100.00
2022-12-06T15:38:50.518Z,100.00
2022-12-06T15:41:53.689Z,100.00
2022-12-06T15:44:55.440Z,100.00
2022-12-06T15:47:57.133Z,100.00
2022-12-06T15:50:59.963Z,100.00
2022-12-06T15:54:02.938Z,100.00
2022-12-06T15:57:04.602Z,100.00
2022-12-06T16:00:06.945Z,100.00
2022-12-06T16:03:08.902Z,100.00
2022-12-06T16:06:15.959Z,100.00
2022-12-06T16:09:19.372Z,100.00
2022-12-06T16:12:21.005Z,100.00
2022-12-06T16:15:22.666Z,100.00
2022-12-06T16:18:24.362Z,100.00
2022-12-06T16:21:30.495Z,100.00
2022-12-06T16:24:32.150Z,100.00
2022-12-06T16:27:33.993Z,100.00
2022-12-06T16:30:35.998Z,100.00
2022-12-06T16:33:37.678Z,100.00
2022-12-06T16:37:00.596Z,100.00
2022-12-06T16:40:02.443Z,100.00
2022-12-06T16:43:04.151Z,100.00
2022-12-06T16:46:21.943Z,100.00
2022-12-06T16:49:45.675Z,100.00
2022-12-06T16:52:49.185Z,100.00
2022-12-06T16:55:50.771Z,100.00
2022-12-06T16:58:52.468Z,100.00
2022-12-06T17:01:55.285Z,100.00
2022-12-06T17:05:01.112Z,100.00
2022-12-06T17:08:03.568Z,100.00
2022-12-06T17:11:25.400Z,100.00
2022-12-06T17:14:27.270Z,100.00
2022-12-06T17:17:29.577Z,100.00
2022-12-06T17:20:31.241Z,100.00
2022-12-06T17:23:32.924Z,100.00
2022-12-06T17:26:34.682Z,100.00
2022-12-06T17:29:36.515Z,100.00
2022-12-06T17:32:38.134Z,100.00
2022-12-06T17:35:39.815Z,100.00
2022-12-06T17:38:41.529Z,100.00
2022-12-06T17:42:01.946Z,100.00
2022-12-06T17:45:05.001Z,100.00
2022-12-06T17:48:06.959Z,100.00
2022-12-06T17:51:08.893Z,100.00
2022-12-06T17:54:10.843Z,100.00
2022-12-06T17:57:17.195Z,100.00
2022-12-06T18:00:19.211Z,100.00
2022-12-06T18:03:21.145Z,100.00
2022-12-06T18:06:25.375Z,100.00
2022-12-06T18:09:27.152Z,100.00
2022-12-06T18:12:32.121Z,100.00
2022-12-06T18:15:38.188Z,100.00
2022-12-06T18:18:41.253Z,100.00
2022-12-06T18:21:43.316Z,100.00
2022-12-06T18:24:44.993Z,100.00
2022-12-06T18:27:46.731Z,100.00
2022-12-06T18:30:48.303Z,100.00
2022-12-06T18:33:49.917Z,100.00
2022-12-06T18:36:51.855Z,100.00
2022-12-06T18:39:53.471Z,100.00
2022-12-06T18:42:55.185Z,100.00
2022-12-06T18:46:01.697Z,100.00
2022-12-06T18:49:03.386Z,100.00
2022-12-06T18:52:05.116Z,100.00
2022-12-06T18:55:08.671Z,100.00
2022-12-06T18:58:10.599Z,100.00
2022-12-06T19:01:24.054Z,100.00
2022-12-06T19:04:25.671Z,100.00
2022-12-06T19:07:27.260Z,100.00
2022-12-06T19:10:29.494Z,100.00
2022-12-06T19:13:31.279Z,100.00
2022-12-06T19:16:37.713Z,100.00
2022-12-06T19:19:40.775Z,100.00
2022-12-06T19:22:42.582Z,100.00
2022-12-06T19:25:44.135Z,100.00
2022-12-06T19:28:45.734Z,100.00
2022-12-06T19:31:47.405Z,100.00
2022-12-06T19:34:50.218Z,100.00
2022-12-06T19:37:52.725Z,100.00
2022-12-06T19:40:55.309Z,100.00
2022-12-06T19:44:15.296Z,100.00
2022-12-06T19:47:16.996Z,100.00
2022-12-06T19:50:18.544Z,100.00
2022-12-06T19:53:20.568Z,100.00
2022-12-06T19:56:22.532Z,100.00
2022-12-06T19:59:27.349Z,100.00
2022-12-06T20:02:29.049Z,100.00
2022-12-06T20:05:30.698Z,100.00
2022-12-06T20:08:32.542Z,100.00
2022-12-06T20:11:57.077Z,100.00
2022-12-06T20:14:58.676Z,100.00
2022-12-06T20:18:00.294Z,100.00
2022-12-06T20:21:01.950Z,100.00
2022-12-06T20:24:04.009Z,100.00
2022-12-06T20:27:05.791Z,100.00
2022-12-06T20:30:08.082Z,100.00
2022-12-06T20:33:09.653Z,100.00
2022-12-06T20:36:12.137Z,100.00
2022-12-06T20:39:22.614Z,100.00
2022-12-06T20:42:24.319Z,100.00
2022-12-06T20:45:25.897Z,100.00
2022-12-06T20:48:27.505Z,100.00
2022-12-06T20:51:30.498Z,100.00
2022-12-06T20:54:32.300Z,100.00
2022-12-06T20:57:33.962Z,100.00
2022-12-06T21:00:35.542Z,100.00
2022-12-06T21:03:37.230Z,100.00
2022-12-06T21:06:39.135Z,100.00
2022-12-06T21:09:40.730Z,100.00
2022-12-06T21:12:42.914Z,100.00
2022-12-06T21:15:44.870Z,100.00
2022-12-06T21:18:46.758Z,100.00
2022-12-06T21:21:53.263Z,100.00
2022-12-06T21:24:56.590Z,100.00
2022-12-06T21:27:58.244Z,100.00
2022-12-06T21:31:00.760Z,100.00
2022-12-06T21:34:02.766Z,100.00
2022-12-06T21:37:04.455Z,100.00
2022-12-06T21:40:06.813Z,100.00
2022-12-06T21:43:08.994Z,100.00
2022-12-06T21:46:16.258Z,100.00
2022-12-06T21:49:17.945Z,100.00
2022-12-06T21:52:19.829Z,100.00
2022-12-06T21:55:21.723Z,100.00
2022-12-06T21:58:23.924Z,100.00
2022-12-06T22:01:30.039Z,100.00
2022-12-06T22:04:31.710Z,100.00
2022-12-06T22:07:33.628Z,100.00
2022-12-06T22:10:40.011Z,100.00
2022-12-06T22:13:42.654Z,100.00
2022-12-06T22:16:44.269Z,100.00
2022-12-06T22:19:45.932Z,100.00
2022-12-06T22:22:47.527Z,100.00
2022-12-06T22:25:49.098Z,100.00
2022-12-06T22:28:51.168Z,100.00
2022-12-06T22:31:52.860Z,100.00
2022-12-06T22:34:54.450Z,100.00
2022-12-06T22:37:56.130Z,100.00
2022-12-06T22:40:59.465Z,100.00
2022-12-06T22:44:02.852Z,100.00
2022-12-06T22:47:04.602Z,100.00
2022-12-06T22:50:07.111Z,100.00
2022-12-06T22:53:08.738Z,100.00
2022-12-06T22:56:11.023Z,100.00
2022-12-06T22:59:13.029Z,100.00
2022-12-06T23:02:14.752Z,100.00
2022-12-06T23:05:17.281Z,100.00
2022-12-06T23:08:18.982Z,100.00
2022-12-06T23:11:29.780Z,100.00
2022-12-06T23:14:31.417Z,100.00
2022-12-06T23:17:33.522Z,100.00
2022-12-06T23:20:35.185Z,100.00
2022-12-06T23:23:38.188Z,100.00
2022-12-06T23:26:45.344Z,100.00
2022-12-06T23:29:46.977Z,100.00
2022-12-06T23:32:48.573Z,100.00
2022-12-06T23:35:50.199Z,100.00
2022-12-06T23:38:52.407Z,100.00
2022-12-06T23:41:54.220Z,100.00
2022-12-06T23:44:55.806Z,100.00
2022-12-06T23:47:57.493Z,100.00
2022-12-06T23:51:11.476Z,100.00
2022-12-06T23:54:14.832Z,100.00
2022-12-06T23:57:16.492Z,100.00
